Terminal Aerodrome Forecast
Issued by NWS Jackson, MS

Home | Current Version | Previous Version | Text Only | Print | Product List | Glossary On
Versions: 1 2 3 4 5 6 7 8 9 10 11 12 13 14
000
FTUS44 KJAN 261720
TAFGWO
TAF
KGWO 261720Z 2618/2718 17009KT P6SM VCTS SCT035CB BKN250
     FM270500 15006KT P6SM OVC100
     FM270800 15005KT P6SM OVC015
     FM271600 18012G18KT P6SM OVC050=

USA.gov is the U.S. government's official web portal to all federal, state and local government web resources and services.